sensor_id;sensor_type;location;lat;lon;timestamp;P1;durP1;ratioP1;P2;durP2;ratioP2
15996;SDS011;8103;51.340;12.326;2023-04-24T00:01:23;1.40;;;1.20;;
15996;SDS011;8103;51.340;12.326;2023-04-24T00:03:50;1.70;;;1.38;;
15996;SDS011;8103;51.340;12.326;2023-04-24T00:06:17;3.25;;;1.50;;
15996;SDS011;8103;51.340;12.326;2023-04-24T00:08:44;1.63;;;1.15;;
15996;SDS011;8103;51.340;12.326;2023-04-24T00:11:10;3.58;;;1.40;;
15996;SDS011;8103;51.340;12.326;2023-04-24T00:13:38;1.40;;;1.30;;
15996;SDS011;8103;51.340;12.326;2023-04-24T00:16:06;2.08;;;1.52;;
15996;SDS011;8103;51.340;12.326;2023-04-24T00:18:35;3.00;;;1.52;;
15996;SDS011;8103;51.340;12.326;2023-04-24T00:21:02;1.55;;;1.45;;
15996;SDS011;8103;51.340;12.326;2023-04-24T00:23:29;3.15;;;1.13;;
15996;SDS011;8103;51.340;12.326;2023-04-24T00:25:56;1.80;;;1.70;;
15996;SDS011;8103;51.340;12.326;2023-04-24T00:28:24;2.25;;;1.65;;
15996;SDS011;8103;51.340;12.326;2023-04-24T00:30:55;1.85;;;1.75;;
15996;SDS011;8103;51.340;12.326;2023-04-24T00:33:22;1.95;;;1.42;;
15996;SDS011;8103;51.340;12.326;2023-04-24T00:35:49;3.78;;;2.28;;
15996;SDS011;8103;51.340;12.326;2023-04-24T00:38:16;2.53;;;1.40;;
15996;SDS011;8103;51.340;12.326;2023-04-24T00:40:43;1.90;;;1.45;;
15996;SDS011;8103;51.340;12.326;2023-04-24T00:43:10;2.60;;;1.58;;
15996;SDS011;8103;51.340;12.326;2023-04-24T00:45:38;5.93;;;1.75;;
15996;SDS011;8103;51.340;12.326;2023-04-24T00:48:04;3.45;;;1.58;;
15996;SDS011;8103;51.340;12.326;2023-04-24T00:50:32;1.20;;;1.02;;
15996;SDS011;8103;51.340;12.326;2023-04-24T00:53:02;1.52;;;1.33;;
15996;SDS011;8103;51.340;12.326;2023-04-24T00:55:29;1.77;;;1.40;;
15996;SDS011;8103;51.340;12.326;2023-04-24T00:57:57;4.32;;;1.60;;
15996;SDS011;8103;51.340;12.326;2023-04-24T01:00:26;1.50;;;1.40;;
15996;SDS011;8103;51.340;12.326;2023-04-24T01:02:56;1.85;;;1.17;;
15996;SDS011;8103;51.340;12.326;2023-04-24T01:05:28;2.15;;;1.30;;
15996;SDS011;8103;51.340;12.326;2023-04-24T01:07:54;7.57;;;1.90;;
15996;SDS011;8103;51.340;12.326;2023-04-24T01:10:24;2.08;;;1.38;;
15996;SDS011;8103;51.340;12.326;2023-04-24T01:12:56;2.50;;;1.10;;
15996;SDS011;8103;51.340;12.326;2023-04-24T01:15:24;1.30;;;1.00;;
15996;SDS011;8103;51.340;12.326;2023-04-24T01:17:53;1.90;;;0.90;;
15996;SDS011;8103;51.340;12.326;2023-04-24T01:20:20;2.28;;;0.88;;
15996;SDS011;8103;51.340;12.326;2023-04-24T01:22:48;1.17;;;0.95;;
15996;SDS011;8103;51.340;12.326;2023-04-24T01:25:17;4.68;;;1.08;;
15996;SDS011;8103;51.340;12.326;2023-04-24T01:27:44;0.85;;;0.80;;
15996;SDS011;8103;51.340;12.326;2023-04-24T01:30:14;4.03;;;1.08;;
15996;SDS011;8103;51.340;12.326;2023-04-24T01:32:41;0.75;;;0.68;;
15996;SDS011;8103;51.340;12.326;2023-04-24T01:35:10;0.80;;;0.75;;
15996;SDS011;8103;51.340;12.326;2023-04-24T01:37:37;2.92;;;1.10;;
15996;SDS011;8103;51.340;12.326;2023-04-24T01:40:05;0.85;;;0.85;;
15996;SDS011;8103;51.340;12.326;2023-04-24T01:42:34;2.15;;;0.90;;
15996;SDS011;8103;51.340;12.326;2023-04-24T01:45:01;3.60;;;1.10;;
15996;SDS011;8103;51.340;12.326;2023-04-24T01:47:32;1.60;;;0.90;;
15996;SDS011;8103;51.340;12.326;2023-04-24T01:49:59;0.80;;;0.70;;
15996;SDS011;8103;51.340;12.326;2023-04-24T01:52:26;1.77;;;0.80;;
15996;SDS011;8103;51.340;12.326;2023-04-24T01:54:54;0.93;;;0.80;;
15996;SDS011;8103;51.340;12.326;2023-04-24T01:57:22;0.70;;;0.68;;
15996;SDS011;8103;51.340;12.326;2023-04-24T01:59:49;0.93;;;0.70;;
15996;SDS011;8103;51.340;12.326;2023-04-24T02:02:17;1.23;;;0.60;;
15996;SDS011;8103;51.340;12.326;2023-04-24T02:04:44;1.05;;;0.95;;
15996;SDS011;8103;51.340;12.326;2023-04-24T02:07:11;1.02;;;0.93;;
15996;SDS011;8103;51.340;12.326;2023-04-24T02:09:38;2.28;;;0.80;;
15996;SDS011;8103;51.340;12.326;2023-04-24T02:12:05;0.82;;;0.80;;
15996;SDS011;8103;51.340;12.326;2023-04-24T02:14:32;1.35;;;0.75;;
15996;SDS011;8103;51.340;12.326;2023-04-24T02:16:58;1.08;;;0.88;;
15996;SDS011;8103;51.340;12.326;2023-04-24T02:19:26;1.83;;;0.98;;
15996;SDS011;8103;51.340;12.326;2023-04-24T02:21:53;1.40;;;1.00;;
15996;SDS011;8103;51.340;12.326;2023-04-24T02:24:21;1.45;;;0.80;;
15996;SDS011;8103;51.340;12.326;2023-04-24T02:26:48;1.85;;;0.90;;
15996;SDS011;8103;51.340;12.326;2023-04-24T02:29:16;1.15;;;0.95;;
15996;SDS011;8103;51.340;12.326;2023-04-24T02:31:44;1.17;;;1.02;;
15996;SDS011;8103;51.340;12.326;2023-04-24T02:34:10;3.70;;;0.90;;
15996;SDS011;8103;51.340;12.326;2023-04-24T02:36:37;1.35;;;1.20;;
15996;SDS011;8103;51.340;12.326;2023-04-24T02:39:06;2.97;;;1.42;;
15996;SDS011;8103;51.340;12.326;2023-04-24T02:41:34;1.00;;;0.90;;
15996;SDS011;8103;51.340;12.326;2023-04-24T02:44:01;1.25;;;0.95;;
15996;SDS011;8103;51.340;12.326;2023-04-24T02:46:28;1.45;;;1.35;;
15996;SDS011;8103;51.340;12.326;2023-04-24T02:48:55;1.15;;;1.05;;
15996;SDS011;8103;51.340;12.326;2023-04-24T02:51:21;1.30;;;1.20;;
15996;SDS011;8103;51.340;12.326;2023-04-24T02:53:48;2.10;;;1.40;;
15996;SDS011;8103;51.340;12.326;2023-04-24T02:56:15;2.40;;;0.90;;
15996;SDS011;8103;51.340;12.326;2023-04-24T02:58:42;1.30;;;1.17;;
15996;SDS011;8103;51.340;12.326;2023-04-24T03:01:09;2.00;;;1.20;;
15996;SDS011;8103;51.340;12.326;2023-04-24T03:03:37;2.85;;;1.27;;
15996;SDS011;8103;51.340;12.326;2023-04-24T03:06:05;3.58;;;1.20;;
15996;SDS011;8103;51.340;12.326;2023-04-24T03:08:34;1.95;;;0.90;;
15996;SDS011;8103;51.340;12.326;2023-04-24T03:11:01;1.30;;;1.13;;
15996;SDS011;8103;51.340;12.326;2023-04-24T03:13:28;1.63;;;1.38;;
15996;SDS011;8103;51.340;12.326;2023-04-24T03:15:55;1.42;;;0.88;;
15996;SDS011;8103;51.340;12.326;2023-04-24T03:18:22;1.75;;;1.17;;
15996;SDS011;8103;51.340;12.326;2023-04-24T03:20:49;2.50;;;1.20;;
15996;SDS011;8103;51.340;12.326;2023-04-24T03:23:16;1.52;;;1.25;;
15996;SDS011;8103;51.340;12.326;2023-04-24T03:25:44;1.50;;;1.05;;
15996;SDS011;8103;51.340;12.326;2023-04-24T03:28:11;1.33;;;1.10;;
15996;SDS011;8103;51.340;12.326;2023-04-24T03:30:38;1.77;;;1.27;;
15996;SDS011;8103;51.340;12.326;2023-04-24T03:37:11;2.55;;;0.93;;
15996;SDS011;8103;51.340;12.326;2023-04-24T03:39:38;1.38;;;0.90;;
15996;SDS011;8103;51.340;12.326;2023-04-24T03:42:04;1.67;;;1.23;;
15996;SDS011;8103;51.340;12.326;2023-04-24T03:44:31;2.03;;;1.20;;
15996;SDS011;8103;51.340;12.326;2023-04-24T03:46:58;1.65;;;1.30;;
15996;SDS011;8103;51.340;12.326;2023-04-24T03:49:25;2.35;;;1.13;;
15996;SDS011;8103;51.340;12.326;2023-04-24T03:51:52;2.05;;;0.98;;
15996;SDS011;8103;51.340;12.326;2023-04-24T03:54:19;3.08;;;1.05;;
15996;SDS011;8103;51.340;12.326;2023-04-24T03:56:47;1.42;;;1.10;;
15996;SDS011;8103;51.340;12.326;2023-04-24T03:59:14;2.15;;;1.30;;
15996;SDS011;8103;51.340;12.326;2023-04-24T04:01:41;1.67;;;1.17;;
15996;SDS011;8103;51.340;12.326;2023-04-24T04:04:09;3.08;;;1.30;;
15996;SDS011;8103;51.340;12.326;2023-04-24T04:06:36;1.73;;;1.17;;
15996;SDS011;8103;51.340;12.326;2023-04-24T04:09:03;2.80;;;1.30;;
15996;SDS011;8103;51.340;12.326;2023-04-24T04:11:30;1.88;;;1.52;;
15996;SDS011;8103;51.340;12.326;2023-04-24T04:13:57;1.63;;;1.20;;
15996;SDS011;8103;51.340;12.326;2023-04-24T04:20:30;1.75;;;1.50;;
15996;SDS011;8103;51.340;12.326;2023-04-24T04:22:57;1.40;;;1.30;;
15996;SDS011;8103;51.340;12.326;2023-04-24T04:25:24;1.80;;;1.42;;
15996;SDS011;8103;51.340;12.326;2023-04-24T04:27:50;2.28;;;1.20;;
15996;SDS011;8103;51.340;12.326;2023-04-24T04:30:18;2.42;;;1.20;;
15996;SDS011;8103;51.340;12.326;2023-04-24T04:32:45;5.78;;;1.60;;
15996;SDS011;8103;51.340;12.326;2023-04-24T04:35:12;2.40;;;1.15;;
15996;SDS011;8103;51.340;12.326;2023-04-24T04:37:39;2.10;;;1.33;;
15996;SDS011;8103;51.340;12.326;2023-04-24T04:40:06;2.00;;;1.55;;
15996;SDS011;8103;51.340;12.326;2023-04-24T04:42:37;3.75;;;1.58;;
15996;SDS011;8103;51.340;12.326;2023-04-24T04:45:10;2.97;;;1.42;;
15996;SDS011;8103;51.340;12.326;2023-04-24T04:47:38;4.07;;;1.15;;
15996;SDS011;8103;51.340;12.326;2023-04-24T04:50:05;1.92;;;1.50;;
15996;SDS011;8103;51.340;12.326;2023-04-24T04:52:33;1.75;;;1.27;;
15996;SDS011;8103;51.340;12.326;2023-04-24T04:54:59;2.05;;;1.48;;
15996;SDS011;8103;51.340;12.326;2023-04-24T04:57:27;3.90;;;1.08;;
15996;SDS011;8103;51.340;12.326;2023-04-24T04:59:53;1.05;;;0.98;;
15996;SDS011;8103;51.340;12.326;2023-04-24T05:02:23;2.67;;;1.10;;
15996;SDS011;8103;51.340;12.326;2023-04-24T05:04:50;4.22;;;1.65;;
15996;SDS011;8103;51.340;12.326;2023-04-24T05:07:17;2.50;;;0.98;;
15996;SDS011;8103;51.340;12.326;2023-04-24T05:09:44;1.25;;;1.08;;
15996;SDS011;8103;51.340;12.326;2023-04-24T05:12:11;5.18;;;2.58;;
15996;SDS011;8103;51.340;12.326;2023-04-24T05:18:44;2.83;;;1.70;;
15996;SDS011;8103;51.340;12.326;2023-04-24T05:21:11;2.45;;;1.05;;
15996;SDS011;8103;51.340;12.326;2023-04-24T05:23:38;1.67;;;0.90;;
15996;SDS011;8103;51.340;12.326;2023-04-24T05:26:05;1.75;;;1.65;;
15996;SDS011;8103;51.340;12.326;2023-04-24T05:28:33;3.13;;;1.40;;
15996;SDS011;8103;51.340;12.326;2023-04-24T05:31:02;1.75;;;1.30;;
15996;SDS011;8103;51.340;12.326;2023-04-24T05:33:30;3.25;;;1.67;;
15996;SDS011;8103;51.340;12.326;2023-04-24T05:35:57;5.75;;;2.28;;
15996;SDS011;8103;51.340;12.326;2023-04-24T05:38:23;9.02;;;1.83;;
15996;SDS011;8103;51.340;12.326;2023-04-24T05:40:51;2.50;;;1.35;;
15996;SDS011;8103;51.340;12.326;2023-04-24T05:43:17;2.90;;;1.10;;
15996;SDS011;8103;51.340;12.326;2023-04-24T05:45:44;4.85;;;2.00;;
15996;SDS011;8103;51.340;12.326;2023-04-24T05:48:11;3.38;;;1.55;;
15996;SDS011;8103;51.340;12.326;2023-04-24T05:50:42;5.03;;;1.67;;
15996;SDS011;8103;51.340;12.326;2023-04-24T05:53:09;2.53;;;1.00;;
15996;SDS011;8103;51.340;12.326;2023-04-24T05:55:36;1.65;;;1.15;;
15996;SDS011;8103;51.340;12.326;2023-04-24T05:58:03;3.25;;;1.20;;
15996;SDS011;8103;51.340;12.326;2023-04-24T06:00:34;1.23;;;0.77;;
15996;SDS011;8103;51.340;12.326;2023-04-24T06:03:01;4.22;;;0.93;;
15996;SDS011;8103;51.340;12.326;2023-04-24T06:05:30;2.35;;;0.90;;
15996;SDS011;8103;51.340;12.326;2023-04-24T06:07:57;1.73;;;1.10;;
15996;SDS011;8103;51.340;12.326;2023-04-24T06:10:24;1.67;;;1.02;;
15996;SDS011;8103;51.340;12.326;2023-04-24T06:12:51;6.53;;;1.67;;
15996;SDS011;8103;51.340;12.326;2023-04-24T06:19:24;1.70;;;1.30;;
15996;SDS011;8103;51.340;12.326;2023-04-24T06:21:51;4.72;;;1.27;;
15996;SDS011;8103;51.340;12.326;2023-04-24T06:24:18;4.93;;;1.90;;
15996;SDS011;8103;51.340;12.326;2023-04-24T06:26:45;5.55;;;1.83;;
15996;SDS011;8103;51.340;12.326;2023-04-24T06:29:12;3.47;;;1.88;;
15996;SDS011;8103;51.340;12.326;2023-04-24T06:31:38;0.77;;;0.77;;
15996;SDS011;8103;51.340;12.326;2023-04-24T06:34:06;1.25;;;0.95;;
15996;SDS011;8103;51.340;12.326;2023-04-24T06:36:33;7.55;;;1.85;;
15996;SDS011;8103;51.340;12.326;2023-04-24T06:39:01;4.65;;;1.40;;
15996;SDS011;8103;51.340;12.326;2023-04-24T06:41:28;2.33;;;1.42;;
15996;SDS011;8103;51.340;12.326;2023-04-24T06:43:56;3.00;;;1.27;;
15996;SDS011;8103;51.340;12.326;2023-04-24T06:46:22;2.47;;;1.00;;
15996;SDS011;8103;51.340;12.326;2023-04-24T06:48:52;1.60;;;1.38;;
15996;SDS011;8103;51.340;12.326;2023-04-24T06:51:26;5.13;;;1.50;;
15996;SDS011;8103;51.340;12.326;2023-04-24T06:53:53;2.45;;;1.33;;
15996;SDS011;8103;51.340;12.326;2023-04-24T06:56:22;4.32;;;1.55;;
15996;SDS011;8103;51.340;12.326;2023-04-24T06:58:52;1.30;;;1.20;;
15996;SDS011;8103;51.340;12.326;2023-04-24T07:01:19;1.63;;;1.05;;
15996;SDS011;8103;51.340;12.326;2023-04-24T07:03:46;3.05;;;1.42;;
15996;SDS011;8103;51.340;12.326;2023-04-24T07:06:13;5.05;;;1.40;;
15996;SDS011;8103;51.340;12.326;2023-04-24T07:08:42;1.40;;;1.30;;
15996;SDS011;8103;51.340;12.326;2023-04-24T07:11:09;1.70;;;1.38;;
15996;SDS011;8103;51.340;12.326;2023-04-24T07:13:36;5.18;;;1.23;;
15996;SDS011;8103;51.340;12.326;2023-04-24T07:16:08;6.82;;;1.80;;
15996;SDS011;8103;51.340;12.326;2023-04-24T07:18:35;2.85;;;1.17;;
15996;SDS011;8103;51.340;12.326;2023-04-24T07:21:02;1.95;;;1.30;;
15996;SDS011;8103;51.340;12.326;2023-04-24T07:23:29;1.73;;;1.40;;
15996;SDS011;8103;51.340;12.326;2023-04-24T07:25:57;3.67;;;1.10;;
15996;SDS011;8103;51.340;12.326;2023-04-24T07:28:24;1.48;;;1.15;;
15996;SDS011;8103;51.340;12.326;2023-04-24T07:34:57;1.48;;;0.90;;
15996;SDS011;8103;51.340;12.326;2023-04-24T07:37:24;3.33;;;1.20;;
15996;SDS011;8103;51.340;12.326;2023-04-24T07:39:52;2.63;;;1.20;;
15996;SDS011;8103;51.340;12.326;2023-04-24T07:42:18;3.65;;;1.00;;
15996;SDS011;8103;51.340;12.326;2023-04-24T07:44:45;6.45;;;1.38;;
15996;SDS011;8103;51.340;12.326;2023-04-24T07:47:13;3.10;;;1.05;;
15996;SDS011;8103;51.340;12.326;2023-04-24T07:49:43;2.17;;;0.90;;
15996;SDS011;8103;51.340;12.326;2023-04-24T07:52:13;2.22;;;0.80;;
15996;SDS011;8103;51.340;12.326;2023-04-24T07:54:44;1.35;;;0.70;;
15996;SDS011;8103;51.340;12.326;2023-04-24T07:57:11;2.25;;;1.05;;
15996;SDS011;8103;51.340;12.326;2023-04-24T08:03:44;0.60;;;0.60;;
15996;SDS011;8103;51.340;12.326;2023-04-24T08:06:11;3.67;;;0.98;;
15996;SDS011;8103;51.340;12.326;2023-04-24T08:08:38;5.03;;;1.45;;
15996;SDS011;8103;51.340;12.326;2023-04-24T08:11:05;3.50;;;0.70;;
15996;SDS011;8103;51.340;12.326;2023-04-24T08:13:32;3.78;;;0.77;;
15996;SDS011;8103;51.340;12.326;2023-04-24T08:16:03;1.40;;;0.70;;
15996;SDS011;8103;51.340;12.326;2023-04-24T08:18:30;3.03;;;0.63;;
15996;SDS011;8103;51.340;12.326;2023-04-24T08:20:57;0.93;;;0.77;;
15996;SDS011;8103;51.340;12.326;2023-04-24T08:23:27;1.48;;;0.77;;
15996;SDS011;8103;51.340;12.326;2023-04-24T08:25:55;0.60;;;0.50;;
15996;SDS011;8103;51.340;12.326;2023-04-24T08:28:24;2.03;;;0.68;;
15996;SDS011;8103;51.340;12.326;2023-04-24T08:30:52;3.58;;;0.95;;
15996;SDS011;8103;51.340;12.326;2023-04-24T08:33:22;1.10;;;0.75;;
15996;SDS011;8103;51.340;12.326;2023-04-24T08:35:50;2.85;;;0.60;;
15996;SDS011;8103;51.340;12.326;2023-04-24T08:38:17;1.35;;;0.70;;
15996;SDS011;8103;51.340;12.326;2023-04-24T08:40:44;0.95;;;0.60;;
15996;SDS011;8103;51.340;12.326;2023-04-24T08:43:15;2.80;;;0.70;;
15996;SDS011;8103;51.340;12.326;2023-04-24T08:45:43;1.42;;;0.80;;
15996;SDS011;8103;51.340;12.326;2023-04-24T08:48:10;2.55;;;0.73;;
15996;SDS011;8103;51.340;12.326;2023-04-24T08:50:52;0.55;;;0.52;;
15996;SDS011;8103;51.340;12.326;2023-04-24T08:53:20;1.27;;;0.47;;
15996;SDS011;8103;51.340;12.326;2023-04-24T08:55:47;1.38;;;0.70;;
15996;SDS011;8103;51.340;12.326;2023-04-24T08:58:16;4.88;;;0.75;;
15996;SDS011;8103;51.340;12.326;2023-04-24T09:00:44;1.63;;;0.52;;
15996;SDS011;8103;51.340;12.326;2023-04-24T09:03:16;1.75;;;0.77;;
15996;SDS011;8103;51.340;12.326;2023-04-24T09:05:44;3.22;;;0.60;;
15996;SDS011;8103;51.340;12.326;2023-04-24T09:08:19;1.20;;;0.50;;
15996;SDS011;8103;51.340;12.326;2023-04-24T09:10:49;7.60;;;1.40;;
15996;SDS011;8103;51.340;12.326;2023-04-24T09:13:16;1.38;;;0.65;;
15996;SDS011;8103;51.340;12.326;2023-04-24T09:15:46;5.10;;;0.70;;
15996;SDS011;8103;51.340;12.326;2023-04-24T09:18:13;2.45;;;0.50;;
15996;SDS011;8103;51.340;12.326;2023-04-24T09:20:59;1.85;;;0.75;;
15996;SDS011;8103;51.340;12.326;2023-04-24T09:27:41;0.88;;;0.40;;
15996;SDS011;8103;51.340;12.326;2023-04-24T09:30:11;4.03;;;0.73;;
15996;SDS011;8103;51.340;12.326;2023-04-24T09:32:38;4.95;;;0.55;;
15996;SDS011;8103;51.340;12.326;2023-04-24T09:39:13;3.97;;;0.60;;
15996;SDS011;8103;51.340;12.326;2023-04-24T09:45:48;3.08;;;0.70;;
15996;SDS011;8103;51.340;12.326;2023-04-24T09:48:15;1.33;;;0.60;;
15996;SDS011;8103;51.340;12.326;2023-04-24T09:50:45;2.38;;;0.80;;
15996;SDS011;8103;51.340;12.326;2023-04-24T09:53:13;2.05;;;0.80;;
15996;SDS011;8103;51.340;12.326;2023-04-24T09:55:42;1.30;;;0.50;;
15996;SDS011;8103;51.340;12.326;2023-04-24T09:58:14;1.00;;;0.85;;
15996;SDS011;8103;51.340;12.326;2023-04-24T10:00:41;1.02;;;0.70;;
15996;SDS011;8103;51.340;12.326;2023-04-24T10:03:07;1.30;;;0.60;;
15996;SDS011;8103;51.340;12.326;2023-04-24T10:05:35;1.70;;;0.70;;
15996;SDS011;8103;51.340;12.326;2023-04-24T10:08:05;3.00;;;0.65;;
15996;SDS011;8103;51.340;12.326;2023-04-24T10:10:35;3.50;;;1.00;;
15996;SDS011;8103;51.340;12.326;2023-04-24T10:13:11;1.48;;;0.63;;
15996;SDS011;8103;51.340;12.326;2023-04-24T10:15:41;6.50;;;1.00;;
15996;SDS011;8103;51.340;12.326;2023-04-24T10:18:09;1.15;;;0.60;;
15996;SDS011;8103;51.340;12.326;2023-04-24T10:20:38;2.78;;;0.80;;
15996;SDS011;8103;51.340;12.326;2023-04-24T10:23:06;2.72;;;0.60;;
15996;SDS011;8103;51.340;12.326;2023-04-24T10:25:34;2.60;;;0.50;;
15996;SDS011;8103;51.340;12.326;2023-04-24T10:28:03;1.17;;;0.80;;
15996;SDS011;8103;51.340;12.326;2023-04-24T10:30:32;2.67;;;0.70;;
15996;SDS011;8103;51.340;12.326;2023-04-24T10:33:04;1.35;;;0.82;;
15996;SDS011;8103;51.340;12.326;2023-04-24T10:35:34;4.50;;;0.55;;
15996;SDS011;8103;51.340;12.326;2023-04-24T10:38:08;1.88;;;0.55;;
15996;SDS011;8103;51.340;12.326;2023-04-24T10:40:39;1.58;;;0.88;;
15996;SDS011;8103;51.340;12.326;2023-04-24T10:47:13;1.20;;;0.65;;
15996;SDS011;8103;51.340;12.326;2023-04-24T10:49:45;4.32;;;0.70;;
15996;SDS011;8103;51.340;12.326;2023-04-24T10:52:12;1.50;;;0.73;;
15996;SDS011;8103;51.340;12.326;2023-04-24T10:54:41;1.15;;;0.90;;
15996;SDS011;8103;51.340;12.326;2023-04-24T10:59:48;1.58;;;0.70;;
15996;SDS011;8103;51.340;12.326;2023-04-24T11:02:38;1.50;;;0.70;;
15996;SDS011;8103;51.340;12.326;2023-04-24T11:05:06;1.00;;;0.60;;
15996;SDS011;8103;51.340;12.326;2023-04-24T11:10:57;2.10;;;0.70;;
15996;SDS011;8103;51.340;12.326;2023-04-24T11:16:35;1.98;;;0.85;;
15996;SDS011;8103;51.340;12.326;2023-04-24T11:19:25;5.13;;;0.93;;
15996;SDS011;8103;51.340;12.326;2023-04-24T11:21:58;1.88;;;0.90;;
15996;SDS011;8103;51.340;12.326;2023-04-24T11:28:35;0.95;;;0.60;;
15996;SDS011;8103;51.340;12.326;2023-04-24T11:34:05;1.23;;;0.70;;
15996;SDS011;8103;51.340;12.326;2023-04-24T11:36:42;1.30;;;0.68;;
15996;SDS011;8103;51.340;12.326;2023-04-24T11:39:14;1.23;;;1.02;;
15996;SDS011;8103;51.340;12.326;2023-04-24T11:41:41;1.08;;;0.70;;
15996;SDS011;8103;51.340;12.326;2023-04-24T11:44:08;2.13;;;1.10;;
15996;SDS011;8103;51.340;12.326;2023-04-24T11:46:37;3.00;;;1.00;;
15996;SDS011;8103;51.340;12.326;2023-04-24T11:49:06;1.70;;;0.90;;
15996;SDS011;8103;51.340;12.326;2023-04-24T11:51:33;2.47;;;0.80;;
15996;SDS011;8103;51.340;12.326;2023-04-24T11:54:13;1.05;;;0.52;;
15996;SDS011;8103;51.340;12.326;2023-04-24T11:56:44;0.90;;;0.70;;
15996;SDS011;8103;51.340;12.326;2023-04-24T11:59:14;1.00;;;0.70;;
15996;SDS011;8103;51.340;12.326;2023-04-24T12:01:44;1.33;;;0.65;;
15996;SDS011;8103;51.340;12.326;2023-04-24T12:04:12;0.63;;;0.63;;
15996;SDS011;8103;51.340;12.326;2023-04-24T12:06:43;4.00;;;0.80;;
15996;SDS011;8103;51.340;12.326;2023-04-24T12:09:26;0.70;;;0.70;;
15996;SDS011;8103;51.340;12.326;2023-04-24T12:11:53;0.90;;;0.70;;
15996;SDS011;8103;51.340;12.326;2023-04-24T12:14:23;2.78;;;0.82;;
15996;SDS011;8103;51.340;12.326;2023-04-24T12:16:50;1.30;;;1.00;;
15996;SDS011;8103;51.340;12.326;2023-04-24T12:19:21;1.48;;;0.82;;
15996;SDS011;8103;51.340;12.326;2023-04-24T12:21:58;4.28;;;0.90;;
15996;SDS011;8103;51.340;12.326;2023-04-24T12:24:31;1.00;;;0.88;;
15996;SDS011;8103;51.340;12.326;2023-04-24T12:26:58;1.73;;;0.98;;
15996;SDS011;8103;51.340;12.326;2023-04-24T12:29:27;1.02;;;0.93;;
15996;SDS011;8103;51.340;12.326;2023-04-24T12:31:54;1.58;;;0.85;;
15996;SDS011;8103;51.340;12.326;2023-04-24T12:34:22;4.88;;;0.95;;
15996;SDS011;8103;51.340;12.326;2023-04-24T12:36:51;1.48;;;0.90;;
15996;SDS011;8103;51.340;12.326;2023-04-24T12:39:18;2.63;;;0.80;;
15996;SDS011;8103;51.340;12.326;2023-04-24T12:41:54;0.80;;;0.80;;
15996;SDS011;8103;51.340;12.326;2023-04-24T12:44:31;1.65;;;0.95;;
15996;SDS011;8103;51.340;12.326;2023-04-24T12:47:01;1.05;;;0.95;;
15996;SDS011;8103;51.340;12.326;2023-04-24T12:49:29;5.97;;;1.10;;
15996;SDS011;8103;51.340;12.326;2023-04-24T12:51:56;0.90;;;0.80;;
15996;SDS011;8103;51.340;12.326;2023-04-24T12:54:24;1.08;;;0.80;;
15996;SDS011;8103;51.340;12.326;2023-04-24T12:56:51;2.47;;;1.15;;
15996;SDS011;8103;51.340;12.326;2023-04-24T12:59:18;1.83;;;1.17;;
15996;SDS011;8103;51.340;12.326;2023-04-24T13:01:44;1.17;;;0.70;;
15996;SDS011;8103;51.340;12.326;2023-04-24T13:04:11;3.10;;;1.15;;
15996;SDS011;8103;51.340;12.326;2023-04-24T13:06:38;1.50;;;1.00;;
15996;SDS011;8103;51.340;12.326;2023-04-24T13:09:09;3.53;;;0.90;;
15996;SDS011;8103;51.340;12.326;2023-04-24T13:11:36;1.02;;;0.88;;
15996;SDS011;8103;51.340;12.326;2023-04-24T13:14:03;2.50;;;1.20;;
15996;SDS011;8103;51.340;12.326;2023-04-24T13:16:33;4.50;;;1.10;;
15996;SDS011;8103;51.340;12.326;2023-04-24T13:19:00;1.67;;;1.00;;
15996;SDS011;8103;51.340;12.326;2023-04-24T13:21:27;3.13;;;1.98;;
15996;SDS011;8103;51.340;12.326;2023-04-24T13:23:56;1.42;;;1.20;;
15996;SDS011;8103;51.340;12.326;2023-04-24T13:26:23;2.17;;;0.77;;
15996;SDS011;8103;51.340;12.326;2023-04-24T13:28:51;2.30;;;1.02;;
15996;SDS011;8103;51.340;12.326;2023-04-24T13:31:18;1.30;;;1.00;;
15996;SDS011;8103;51.340;12.326;2023-04-24T13:33:45;6.65;;;1.27;;
15996;SDS011;8103;51.340;12.326;2023-04-24T13:36:12;9.38;;;2.47;;
15996;SDS011;8103;51.340;12.326;2023-04-24T13:38:39;1.75;;;0.90;;
15996;SDS011;8103;51.340;12.326;2023-04-24T13:41:07;2.28;;;1.30;;
15996;SDS011;8103;51.340;12.326;2023-04-24T13:43:34;2.45;;;0.90;;
15996;SDS011;8103;51.340;12.326;2023-04-24T13:46:01;1.50;;;1.08;;
15996;SDS011;8103;51.340;12.326;2023-04-24T13:48:30;2.67;;;1.13;;
15996;SDS011;8103;51.340;12.326;2023-04-24T13:50:56;1.40;;;1.20;;
15996;SDS011;8103;51.340;12.326;2023-04-24T13:53:23;2.50;;;1.23;;
15996;SDS011;8103;51.340;12.326;2023-04-24T13:55:50;4.07;;;1.35;;
15996;SDS011;8103;51.340;12.326;2023-04-24T13:58:20;1.25;;;0.82;;
15996;SDS011;8103;51.340;12.326;2023-04-24T14:00:47;4.30;;;2.20;;
15996;SDS011;8103;51.340;12.326;2023-04-24T14:03:14;1.25;;;0.90;;
15996;SDS011;8103;51.340;12.326;2023-04-24T14:05:42;2.40;;;0.98;;
15996;SDS011;8103;51.340;12.326;2023-04-24T14:08:08;2.17;;;0.88;;
15996;SDS011;8103;51.340;12.326;2023-04-24T14:10:35;3.38;;;0.63;;
15996;SDS011;8103;51.340;12.326;2023-04-24T14:13:02;7.53;;;0.47;;
15996;SDS011;8103;51.340;12.326;2023-04-24T14:15:29;2.22;;;0.65;;
15996;SDS011;8103;51.340;12.326;2023-04-24T14:17:56;2.60;;;0.70;;
15996;SDS011;8103;51.340;12.326;2023-04-24T14:20:26;4.28;;;0.77;;
15996;SDS011;8103;51.340;12.326;2023-04-24T14:22:53;4.53;;;1.27;;
15996;SDS011;8103;51.340;12.326;2023-04-24T14:25:21;2.60;;;1.15;;
15996;SDS011;8103;51.340;12.326;2023-04-24T14:27:48;6.43;;;1.05;;
15996;SDS011;8103;51.340;12.326;2023-04-24T14:30:15;3.08;;;0.98;;
15996;SDS011;8103;51.340;12.326;2023-04-24T14:32:42;4.22;;;0.90;;
15996;SDS011;8103;51.340;12.326;2023-04-24T14:35:09;4.07;;;0.65;;
15996;SDS011;8103;51.340;12.326;2023-04-24T14:42:20;2.30;;;0.47;;
15996;SDS011;8103;51.340;12.326;2023-04-24T14:44:47;1.80;;;0.57;;
15996;SDS011;8103;51.340;12.326;2023-04-24T14:47:14;7.22;;;1.17;;
15996;SDS011;8103;51.340;12.326;2023-04-24T14:49:43;7.05;;;0.57;;
15996;SDS011;8103;51.340;12.326;2023-04-24T14:52:10;1.40;;;0.60;;
15996;SDS011;8103;51.340;12.326;2023-04-24T14:54:37;1.55;;;0.68;;
15996;SDS011;8103;51.340;12.326;2023-04-24T14:57:04;3.15;;;1.02;;
15996;SDS011;8103;51.340;12.326;2023-04-24T14:59:31;1.73;;;0.70;;
15996;SDS011;8103;51.340;12.326;2023-04-24T15:01:59;1.45;;;0.60;;
15996;SDS011;8103;51.340;12.326;2023-04-24T15:04:40;1.00;;;0.50;;
15996;SDS011;8103;51.340;12.326;2023-04-24T15:07:07;5.32;;;1.00;;
15996;SDS011;8103;51.340;12.326;2023-04-24T15:09:34;2.28;;;0.50;;
15996;SDS011;8103;51.340;12.326;2023-04-24T15:12:01;3.95;;;0.40;;
15996;SDS011;8103;51.340;12.326;2023-04-24T15:14:28;5.35;;;0.50;;
15996;SDS011;8103;51.340;12.326;2023-04-24T15:16:56;1.55;;;0.50;;
15996;SDS011;8103;51.340;12.326;2023-04-24T15:19:23;2.35;;;0.50;;
15996;SDS011;8103;51.340;12.326;2023-04-24T15:21:51;2.17;;;0.70;;
15996;SDS011;8103;51.340;12.326;2023-04-24T15:24:18;4.80;;;0.47;;
15996;SDS011;8103;51.340;12.326;2023-04-24T15:26:46;0.50;;;0.35;;
15996;SDS011;8103;51.340;12.326;2023-04-24T15:29:13;1.05;;;0.40;;
15996;SDS011;8103;51.340;12.326;2023-04-24T15:31:40;0.43;;;0.40;;
15996;SDS011;8103;51.340;12.326;2023-04-24T15:34:07;1.15;;;0.35;;
15996;SDS011;8103;51.340;12.326;2023-04-24T15:36:35;2.10;;;0.45;;
15996;SDS011;8103;51.340;12.326;2023-04-24T15:39:02;1.15;;;1.00;;
15996;SDS011;8103;51.340;12.326;2023-04-24T15:41:31;1.05;;;0.80;;
15996;SDS011;8103;51.340;12.326;2023-04-24T15:43:58;4.05;;;0.77;;
15996;SDS011;8103;51.340;12.326;2023-04-24T15:46:24;4.32;;;0.30;;
15996;SDS011;8103;51.340;12.326;2023-04-24T15:48:52;2.63;;;0.50;;
15996;SDS011;8103;51.340;12.326;2023-04-24T15:51:19;0.68;;;0.35;;
15996;SDS011;8103;51.340;12.326;2023-04-24T15:53:46;2.47;;;0.30;;
15996;SDS011;8103;51.340;12.326;2023-04-24T15:56:14;1.13;;;0.30;;